^^
Saratoga-Weather Station Historical Data
Daily Summary for November 26, 2021 Units:  Both    English   Metric
Daily Weekly Monthly Yearly Custom
  High: Low: Average:
Temperature: 36.7 °F /  2.6 °C 32.4 °F /  0.2 °C 34.3 °F /  1.3 °C
Dew Point: 35.4 °F /  1.9 °C 30.6 °F /  -0.8 °C 32.7 °F /  0.4 °C
Humidity: 96% 90% 94%
Wind Speed: 4.9mph /  7.9km/h - 0.6mph /  0.9km/h
Wind Gust: 8mph /  12.9km/h - -
Wind- - West
Pressure: 29.8 in /  1009.5 hPa 29.7 in /  1004.7 hPa -
Precipitation: 0 in /  0.0 mm    
Historical Graphs
 
 
Tabular Data for November 26, 2021
Time Temperature Dew Point Pressure Wind Wind Speed Wind Gust Humidity Rainfall Rate (Hourly) solar
00:01 33.8 °F /  1 °C 31.1 °F /  -0.5 °C 29.8in /  1009.5hPa Calm     90% 0in /  0.0mm 0 W/m2
00:06 33.6 °F /  0.9 °C 31.3 °F /  -0.4 °C 29.8in /  1009.5hPa Calm     91% 0in /  0.0mm 0 W/m2
00:11 33.4 °F /  0.8 °C 31.1 °F /  -0.5 °C 29.8in /  1009.1hPa Calm     91% 0in /  0.0mm 0 W/m2
00:16 33.4 °F /  0.8 °C 31.3 °F /  -0.4 °C 29.8in /  1009.1hPa Calm     92% 0in /  0.0mm 0 W/m2
00:21 33.3 °F /  0.7 °C 31.1 °F /  -0.5 °C 29.8in /  1009.1hPa Calm   1mph /  1.6km/h 92% 0in /  0.0mm 0 W/m2
00:26 33.1 °F /  0.6 °C 31.1 °F /  -0.5 °C 29.8in /  1009.5hPa Calm     92% 0in /  0.0mm 0 W/m2
00:31 32.9 °F /  0.5 °C 30.9 °F /  -0.6 °C 29.8in /  1009.1hPa Calm   1mph /  1.6km/h 92% 0in /  0.0mm 0 W/m2
00:36 32.7 °F /  0.4 °C 30.7 °F /  -0.7 °C 29.8in /  1009.1hPa Calm     92% 0in /  0.0mm 0 W/m2
00:41 32.5 °F /  0.3 °C 30.6 °F /  -0.8 °C 29.8in /  1009.1hPa Calm     92% 0in /  0.0mm 0 W/m2
00:46 32.5 °F /  0.3 °C 30.7 °F /  -0.7 °C 29.8in /  1009.1hPa Calm     93% 0in /  0.0mm 0 W/m2
00:51 32.4 °F /  0.2 °C 30.6 °F /  -0.8 °C 29.8in /  1009.1hPa Calm     93% 0in /  0.0mm 0 W/m2
00:56 32.4 °F /  0.2 °C 30.6 °F /  -0.8 °C 29.8in /  1009.1hPa Calm     93% 0in /  0.0mm 0 W/m2
01:01 32.5 °F /  0.3 °C 30.7 °F /  -0.7 °C 29.8in /  1008.8hPa Calm     93% 0in /  0.0mm 0 W/m2
01:06 32.9 °F /  0.5 °C 31.3 °F /  -0.4 °C 29.8in /  1008.8hPa WSW 0.9mph /  1.4km/h 3mph /  4.8km/h 94% 0in /  0.0mm 0 W/m2
01:11 33.6 °F /  0.9 °C 32.4 °F /  0.2 °C 29.8in /  1008.8hPa West 0.9mph /  1.4km/h 3mph /  4.8km/h 95% 0in /  0.0mm 0 W/m2
01:16 34.5 °F /  1.4 °C 33.3 °F /  0.7 °C 29.8in /  1008.8hPa WSW 4mph /  6.4km/h 4mph /  6.4km/h 95% 0in /  0.0mm 0 W/m2
01:21 35.1 °F /  1.7 °C 33.8 °F /  1 °C 29.8in /  1008.5hPa Calm   1mph /  1.6km/h 95% 0in /  0.0mm 0 W/m2
01:26 35.2 °F /  1.8 °C 34 °F /  1.1 °C 29.8in /  1008.5hPa SW 4mph /  6.4km/h 4mph /  6.4km/h 95% 0in /  0.0mm 0 W/m2
01:31 35.4 °F /  1.9 °C 34.2 °F /  1.2 °C 29.8in /  1008.5hPa Calm     95% 0in /  0.0mm 0 W/m2
01:36 35.4 °F /  1.9 °C 34.2 °F /  1.2 °C 29.8in /  1008.5hPa West 0.9mph /  1.4km/h 2mph /  3.2km/h 95% 0in /  0.0mm 0 W/m2
01:41 35.6 °F /  2 °C 34 °F /  1.1 °C 29.8in /  1008.5hPa Calm   1mph /  1.6km/h 94% 0in /  0.0mm 0 W/m2
01:46 35.8 °F /  2.1 °C 34.2 °F /  1.2 °C 29.8in /  1008.5hPa Calm     94% 0in /  0.0mm 0 W/m2
01:51 35.8 °F /  2.1 °C 34.2 °F /  1.2 °C 29.8in /  1008.5hPa Calm     94% 0in /  0.0mm 0 W/m2
01:56 36 °F /  2.2 °C 34.3 °F /  1.3 °C 29.8in /  1008.1hPa WSW 2mph /  3.2km/h 2mph /  3.2km/h 94% 0in /  0.0mm 0 W/m2
02:01 36 °F /  2.2 °C 34.3 °F /  1.3 °C 29.8in /  1008.1hPa WSW 2mph /  3.2km/h 2mph /  3.2km/h 94% 0in /  0.0mm 0 W/m2
02:06 36.1 °F /  2.3 °C 34.5 °F /  1.4 °C 29.8in /  1008.1hPa Calm   1mph /  1.6km/h 94% 0in /  0.0mm 0 W/m2
02:11 36.3 °F /  2.4 °C 34.7 °F /  1.5 °C 29.8in /  1008.1hPa West 2mph /  3.2km/h 2mph /  3.2km/h 94% 0in /  0.0mm 0 W/m2
02:16 36.1 °F /  2.3 °C 34.5 °F /  1.4 °C 29.8in /  1008.1hPa Calm     94% 0in /  0.0mm 0 W/m2
02:21 36 °F /  2.2 °C 34.2 °F /  1.2 °C 29.8in /  1007.8hPa Calm     93% 0in /  0.0mm 0 W/m2
02:26 35.8 °F /  2.1 °C 34 °F /  1.1 °C 29.8in /  1007.8hPa Calm     93% 0in /  0.0mm 0 W/m2
02:31 35.4 °F /  1.9 °C 33.6 °F /  0.9 °C 29.8in /  1007.8hPa Calm     93% 0in /  0.0mm 0 W/m2
02:36 35.1 °F /  1.7 °C 33.3 °F /  0.7 °C 29.8in /  1007.5hPa Calm     93% 0in /  0.0mm 0 W/m2
02:41 34.9 °F /  1.6 °C 33.1 °F /  0.6 °C 29.8in /  1007.8hPa Calm     93% 0in /  0.0mm 0 W/m2
02:46 34.3 °F /  1.3 °C 32.2 °F /  0.1 °C 29.8in /  1007.5hPa Calm     92% 0in /  0.0mm 0 W/m2
02:51 34.2 °F /  1.2 °C 32.4 °F /  0.2 °C 29.8in /  1007.5hPa Calm     93% 0in /  0.0mm 0 W/m2
02:56 33.8 °F /  1 °C 31.6 °F /  -0.2 °C 29.8in /  1007.8hPa Calm     92% 0in /  0.0mm 0 W/m2
03:01 33.4 °F /  0.8 °C 31.6 °F /  -0.2 °C 29.8in /  1007.5hPa West 0.9mph /  1.4km/h 2mph /  3.2km/h 93% 0in /  0.0mm 0 W/m2
03:07 33.4 °F /  0.8 °C 31.6 °F /  -0.2 °C 29.8in /  1007.5hPa Calm     93% 0in /  0.0mm 0 W/m2
03:12 33.3 °F /  0.7 °C 31.5 °F /  -0.3 °C 29.8in /  1007.5hPa Calm     93% 0in /  0.0mm 0 W/m2
03:17 33.3 °F /  0.7 °C 31.5 °F /  -0.3 °C 29.8in /  1007.5hPa Calm     93% 0in /  0.0mm 0 W/m2
03:22 33.1 °F /  0.6 °C 31.3 °F /  -0.4 °C 29.8in /  1007.5hPa Calm     93% 0in /  0.0mm 0 W/m2
03:27 32.9 °F /  0.5 °C 31.1 °F /  -0.5 °C 29.7in /  1007.1hPa Calm     93% 0in /  0.0mm 0 W/m2
03:32 32.7 °F /  0.4 °C 30.9 °F /  -0.6 °C 29.7in /  1007.1hPa Calm     93% 0in /  0.0mm 0 W/m2
03:37 32.5 °F /  0.3 °C 30.9 °F /  -0.6 °C 29.7in /  1007.1hPa Calm     94% 0in /  0.0mm 0 W/m2
03:42 32.5 °F /  0.3 °C 30.9 °F /  -0.6 °C 29.7in /  1007.1hPa Calm     94% 0in /  0.0mm 0 W/m2
03:47 32.5 °F /  0.3 °C 30.9 °F /  -0.6 °C 29.7in /  1006.8hPa Calm     94% 0in /  0.0mm 0 W/m2
03:52 32.5 °F /  0.3 °C 30.9 °F /  -0.6 °C 29.7in /  1006.8hPa Calm     94% 0in /  0.0mm 0 W/m2
03:57 32.7 °F /  0.4 °C 31.1 °F /  -0.5 °C 29.7in /  1006.8hPa Calm     94% 0in /  0.0mm 0 W/m2
04:02 32.7 °F /  0.4 °C 31.1 °F /  -0.5 °C 29.7in /  1006.4hPa Calm     94% 0in /  0.0mm 0 W/m2
04:07 33.1 °F /  0.6 °C 31.8 °F /  -0.1 °C 29.7in /  1006.8hPa Calm   1mph /  1.6km/h 95% 0in /  0.0mm 0 W/m2
04:12 33.1 °F /  0.6 °C 31.8 °F /  -0.1 °C 29.7in /  1006.4hPa Calm     95% 0in /  0.0mm 0 W/m2
04:17 33.1 °F /  0.6 °C 31.8 °F /  -0.1 °C 29.7in /  1006.4hPa Calm     95% 0in /  0.0mm 0 W/m2
04:22 33.3 °F /  0.7 °C 32 °F /  0 °C 29.7in /  1006.4hPa Calm     95% 0in /  0.0mm 0 W/m2
04:27 33.3 °F /  0.7 °C 32 °F /  0 °C 29.7in /  1006.4hPa Calm     95% 0in /  0.0mm 0 W/m2
04:32 33.4 °F /  0.8 °C 32.2 °F /  0.1 °C 29.7in /  1006.1hPa Calm   1mph /  1.6km/h 95% 0in /  0.0mm 0 W/m2
04:37 33.4 °F /  0.8 °C 32.2 °F /  0.1 °C 29.7in /  1006.1hPa Calm     95% 0in /  0.0mm 0 W/m2
04:42 33.4 °F /  0.8 °C 32.2 °F /  0.1 °C 29.7in /  1006.1hPa Calm   1mph /  1.6km/h 95% 0in /  0.0mm 0 W/m2
04:47 33.6 °F /  0.9 °C 32.4 °F /  0.2 °C 29.7in /  1006.1hPa Calm     95% 0in /  0.0mm 0 W/m2
04:52 33.8 °F /  1 °C 32.5 °F /  0.3 °C 29.7in /  1005.8hPa Calm   1mph /  1.6km/h 95% 0in /  0.0mm 0 W/m2
04:57 34 °F /  1.1 °C 32.7 °F /  0.4 °C 29.7in /  1005.8hPa Calm   2mph /  3.2km/h 95% 0in /  0.0mm 0 W/m2
05:07 34.3 °F /  1.3 °C 33.1 °F /  0.6 °C 29.7in /  1005.8hPa Calm   2mph /  3.2km/h 95% 0in /  0.0mm 0 W/m2
05:12 34.3 °F /  1.3 °C 33.1 °F /  0.6 °C 29.7in /  1005.8hPa Calm   2mph /  3.2km/h 95% 0in /  0.0mm 0 W/m2
05:17 34.5 °F /  1.4 °C 33.3 °F /  0.7 °C 29.7in /  1005.8hPa NW 2mph /  3.2km/h 3mph /  4.8km/h 95% 0in /  0.0mm 0 W/m2
05:22 35.1 °F /  1.7 °C 33.8 °F /  1 °C 29.7in /  1005.8hPa WSW 4.9mph /  7.9km/h 7mph /  11.3km/h 95% 0in /  0.0mm 0 W/m2
05:27 35.6 °F /  2 °C 34.5 °F /  1.4 °C 29.7in /  1005.8hPa Calm   2mph /  3.2km/h 96% 0in /  0.0mm 0 W/m2
05:32 36.1 °F /  2.3 °C 35.1 °F /  1.7 °C 29.7in /  1005.8hPa WNW 2.9mph /  4.7km/h 7mph /  11.3km/h 96% 0in /  0.0mm 0 W/m2
05:37 36.3 °F /  2.4 °C 35.1 °F /  1.7 °C 29.7in /  1005.4hPa West 2mph /  3.2km/h 7mph /  11.3km/h 95% 0in /  0.0mm 0 W/m2
05:42 36.7 °F /  2.6 °C 35.4 °F /  1.9 °C 29.7in /  1005.4hPa West 0.9mph /  1.4km/h 7mph /  11.3km/h 95% 0in /  0.0mm 0 W/m2
05:47 36.7 °F /  2.6 °C 35.4 °F /  1.9 °C 29.7in /  1005.4hPa NW 2mph /  3.2km/h 7mph /  11.3km/h 95% 0in /  0.0mm 0 W/m2
05:52 36.7 °F /  2.6 °C 35.4 °F /  1.9 °C 29.7in /  1005.4hPa West 2mph /  3.2km/h 8mph /  12.9km/h 95% 0in /  0.0mm 0 W/m2
05:57 36.5 °F /  2.5 °C 34.9 °F /  1.6 °C 29.7in /  1005.4hPa SW 0.9mph /  1.4km/h 4mph /  6.4km/h 94% 0in /  0.0mm 0 W/m2
06:07 36.7 °F /  2.6 °C 35.1 °F /  1.7 °C 29.7in /  1005.1hPa SW 2.9mph /  4.7km/h 3mph /  4.8km/h 94% 0in /  0.0mm 0 W/m2
06:12 36.7 °F /  2.6 °C 35.1 °F /  1.7 °C 29.7in /  1005.1hPa WNW 2mph /  3.2km/h 4mph /  6.4km/h 94% 0in /  0.0mm 0 W/m2
06:17 36.7 °F /  2.6 °C 35.1 °F /  1.7 °C 29.7in /  1005.1hPa West 2mph /  3.2km/h 6mph /  9.7km/h 94% 0in /  0.0mm 0 W/m2
06:27 36.7 °F /  2.6 °C 35.1 °F /  1.7 °C 29.7in /  1004.7hPa West 0.9mph /  1.4km/h 5mph /  8km/h 94% 0in /  0.0mm 0 W/m2
06:32 36.7 °F /  2.6 °C 35.1 °F /  1.7 °C 29.7in /  1005.1hPa WSW 0.9mph /  1.4km/h 4mph /  6.4km/h 94% 0in /  0.0mm 0 W/m2
Juneau County Weather
Compliments of Weather Underground - 4 mb